Time;durP1;ratioP1;P1;durP2;ratioP2;P2;SDS_P1;SDS_P2;PMS_P1;PMS_P2;Temp;Humidity;BMP_temperature;BMP_pressure;BME280_temperature;BME280_humidity;BME280_pressure;Samples;Min_cycle;Max_cycle;Signal;HPM_P1;HPM_P2
2023/01/08 00:01:11;;;;;;;3.28;2.85;;;;;;;8.80;100.00;100163.94;10576785;27;20061;-76
2023/01/08 00:06:13;;;;;;;3.80;3.40;;;;;;;8.76;100.00;100169.09;10592572;27;20028;-74
2023/01/08 00:11:14;;;;;;;4.78;3.05;;;;;;;8.91;100.00;100149.22;10574120;28;20630;-73
2023/01/08 00:16:15;;;;;;;3.95;3.30;;;;;;;8.91;100.00;100126.41;10577574;28;20047;-74
2023/01/08 00:21:16;;;;;;;3.75;3.40;;;;;;;8.91;100.00;100132.75;10594008;27;20046;-73
2023/01/08 00:26:16;;;;;;;4.45;3.80;;;;;;;8.80;100.00;100145.53;10575702;27;20031;-72
2023/01/08 00:31:17;;;;;;;4.85;3.42;;;;;;;8.71;100.00;100132.56;10560262;27;20099;-74
2023/01/08 00:36:18;;;;;;;6.50;4.28;;;;;;;8.68;100.00;100134.75;10576593;27;20058;-72
2023/01/08 00:41:18;;;;;;;4.47;3.85;;;;;;;8.63;100.00;100131.94;10560251;27;20043;-72
2023/01/08 00:46:19;;;;;;;4.72;4.00;;;;;;;8.62;100.00;100135.78;10573921;27;20032;-73
2023/01/08 00:51:20;;;;;;;7.60;3.70;;;;;;;8.67;100.00;100127.59;10575856;28;20053;-73
2023/01/08 00:56:20;;;;;;;4.15;3.67;;;;;;;8.68;100.00;100132.00;10577842;27;20031;-73
2023/01/08 01:01:21;;;;;;;4.38;3.97;;;;;;;8.74;100.00;100119.13;10558909;28;20467;-72
2023/01/08 01:06:21;;;;;;;5.20;3.90;;;;;;;8.68;100.00;100088.09;10578891;27;20043;-73
2023/01/08 01:11:23;;;;;;;6.95;4.78;;;;;;;8.74;100.00;100108.16;10578824;28;20036;-74
2023/01/08 01:16:24;;;;;;;6.50;4.95;;;;;;;8.74;100.00;100118.31;10548107;28;20448;-73
2023/01/08 01:21:29;;;;;;;8.27;5.70;;;;;;;8.69;100.00;100122.66;10534558;28;20040;-74
2023/01/08 01:26:29;;;;;;;7.15;6.45;;;;;;;8.63;100.00;100126.44;10518777;28;20099;-74
2023/01/08 01:31:30;;;;;;;6.90;5.93;;;;;;;8.58;100.00;100129.16;10540413;28;20044;-73
2023/01/08 01:36:31;;;;;;;5.80;5.30;;;;;;;8.61;100.00;100112.16;10584792;27;20081;-74
2023/01/08 01:41:39;;;;;;;7.95;5.80;;;;;;;8.68;100.00;100106.44;10569691;27;20028;-74
2023/01/08 01:46:39;;;;;;;6.60;5.78;;;;;;;8.69;100.00;100119.91;10569050;27;20035;-74
2023/01/08 01:51:46;;;;;;;6.95;5.20;;;;;;;8.66;100.00;100125.09;10561624;27;20040;-73
2023/01/08 01:56:46;;;;;;;5.65;5.15;;;;;;;8.60;100.00;100110.53;10526521;28;20036;-73
2023/01/08 02:01:47;;;;;;;5.28;4.78;;;;;;;8.58;100.00;100118.19;10544175;28;20032;-73
2023/01/08 02:06:47;;;;;;;5.80;4.07;;;;;;;8.60;100.00;100099.53;10545735;28;20082;-73
2023/01/08 02:12:16;;;;;;;4.13;3.67;;;;;;;8.64;100.00;100100.69;10542933;28;20048;-73
2023/01/08 02:17:24;;;;;;;7.15;3.78;;;;;;;8.56;100.00;100109.38;10542708;28;20046;-72
2023/01/08 02:22:36;;;;;;;8.40;3.00;;;;;;;8.45;100.00;100085.66;10574648;27;20031;-73
2023/01/08 02:27:36;;;;;;;5.43;2.63;;;;;;;8.52;100.00;100097.28;10542920;28;20043;-72
2023/01/08 02:32:38;;;;;;;2.78;1.67;;;;;;;8.45;100.00;100099.38;10543939;28;20028;-72
2023/01/08 02:37:38;;;;;;;7.18;2.28;;;;;;;8.32;100.00;100097.03;10525210;28;20032;-72
2023/01/08 02:42:44;;;;;;;6.95;2.20;;;;;;;8.18;100.00;100102.91;10524937;28;20563;-73
2023/01/08 02:47:48;;;;;;;5.00;1.90;;;;;;;8.06;100.00;100104.97;10540419;28;20090;-73
2023/01/08 02:52:51;;;;;;;8.90;2.88;;;;;;;7.99;100.00;100098.84;10541133;28;20282;-72
2023/01/08 02:57:52;;;;;;;7.30;2.55;;;;;;;7.85;100.00;100099.25;10543973;28;20044;-72
2023/01/08 03:03:00;;;;;;;9.15;1.88;;;;;;;7.74;100.00;100107.59;10541170;28;20036;-74
2023/01/08 03:08:00;;;;;;;7.85;2.28;;;;;;;7.65;100.00;100107.22;10557321;28;20036;-73
2023/01/08 03:13:03;;;;;;;14.43;2.20;;;;;;;7.61;100.00;100103.34;10525621;27;20062;-73
2023/01/08 03:18:07;;;;;;;8.90;2.58;;;;;;;7.56;100.00;100106.81;10556560;28;20063;-73
2023/01/08 03:23:09;;;;;;;8.25;2.78;;;;;;;7.52;100.00;100093.88;10542512;28;20032;-73
2023/01/08 03:28:16;;;;;;;9.18;3.67;;;;;;;7.45;100.00;100096.81;10540258;28;20112;-72
2023/01/08 03:33:16;;;;;;;14.05;3.22;;;;;;;7.38;100.00;100094.25;10522230;28;20036;-72
2023/01/08 03:38:25;;;;;;;14.73;3.40;;;;;;;7.39;100.00;100111.50;10538362;28;20047;-73
2023/01/08 03:43:28;;;;;;;8.75;3.33;;;;;;;7.37;100.00;100106.28;10538506;28;20036;-73
2023/01/08 03:48:29;;;;;;;10.05;3.70;;;;;;;7.38;100.00;100098.88;10538681;28;20488;-73
2023/01/08 03:53:29;;;;;;;8.32;2.63;;;;;;;7.39;100.00;100095.91;10539636;28;20032;-72
2023/01/08 03:58:30;;;;;;;12.82;3.33;;;;;;;7.52;100.00;100099.34;10539006;28;20039;-73
2023/01/08 04:03:30;;;;;;;7.63;2.90;;;;;;;7.52;100.00;100083.75;10538279;28;20055;-73
2023/01/08 04:08:31;;;;;;;8.68;3.58;;;;;;;7.54;100.00;100086.25;10575295;27;20058;-73
2023/01/08 04:13:31;;;;;;;7.72;3.85;;;;;;;7.43;100.00;100086.09;10580364;27;20028;-73
2023/01/08 04:18:31;;;;;;;7.47;3.85;;;;;;;7.42;100.00;100075.38;10580909;28;20039;-73
2023/01/08 04:23:32;;;;;;;7.35;4.60;;;;;;;7.44;100.00;100076.81;10581332;27;20053;-73
2023/01/08 04:28:33;;;;;;;10.57;4.72;;;;;;;7.52;100.00;100077.44;10579997;27;20047;-71
2023/01/08 04:33:33;;;;;;;4.88;4.47;;;;;;;7.57;100.00;100058.34;10547959;28;20127;-72
2023/01/08 04:38:34;;;;;;;6.95;5.10;;;;;;;7.65;100.00;100077.91;10519141;28;20036;-72
2023/01/08 04:43:34;;;;;;;9.07;5.03;;;;;;;7.69;100.00;100061.78;10536507;28;20020;-73
2023/01/08 04:48:35;;;;;;;7.90;4.70;;;;;;;7.85;100.00;100066.38;10520361;28;20036;-73
2023/01/08 04:53:36;;;;;;;5.22;4.68;;;;;;;7.97;100.00;100051.69;10537717;28;20036;-73
2023/01/08 04:58:36;;;;;;;4.55;4.07;;;;;;;8.07;100.00;100040.84;10537247;28;20036;-73
2023/01/08 05:03:37;;;;;;;9.05;4.47;;;;;;;8.15;100.00;100045.84;10567284;27;20032;-74
2023/01/08 05:08:37;;;;;;;6.40;4.10;;;;;;;8.09;100.00;100041.41;10576327;28;20537;-73
2023/01/08 05:13:38;;;;;;;8.65;4.00;;;;;;;8.15;100.00;100047.78;10543717;28;20035;-74
2023/01/08 05:18:38;;;;;;;5.25;3.13;;;;;;;8.14;100.00;100041.44;10578832;28;20043;-73
2023/01/08 05:23:39;;;;;;;4.68;4.20;;;;;;;8.11;100.00;100041.97;10579512;28;20032;-73
2023/01/08 05:28:39;;;;;;;5.80;4.05;;;;;;;8.09;100.00;100033.19;10561622;28;20099;-73
2023/01/08 05:33:40;;;;;;;6.43;4.07;;;;;;;7.98;100.00;100010.31;10594757;28;20051;-73
2023/01/08 05:38:40;;;;;;;5.40;3.75;;;;;;;8.03;100.00;100023.25;10556255;28;20055;-72
2023/01/08 05:43:41;;;;;;;7.32;4.22;;;;;;;8.02;100.00;100018.84;10579346;28;20029;-73
2023/01/08 05:48:41;;;;;;;6.78;4.03;;;;;;;8.01;100.00;100007.06;10577387;28;20046;-73
2023/01/08 05:53:42;;;;;;;7.18;4.25;;;;;;;7.95;100.00;100010.00;10561793;28;20051;-72
2023/01/08 05:58:42;;;;;;;4.32;4.00;;;;;;;7.85;100.00;100010.72;10579612;28;20048;-72
2023/01/08 06:03:43;;;;;;;6.88;4.30;;;;;;;7.20;100.00;99933.84;10577020;28;20052;-72
2023/01/08 06:08:43;;;;;;;8.00;4.38;;;;;;;7.70;100.00;100019.59;10547181;28;20036;-73
2023/01/08 06:13:43;;;;;;;6.22;4.32;;;;;;;7.31;100.00;99967.63;10534476;28;20081;-72
2023/01/08 06:18:44;;;;;;;6.88;4.30;;;;;;;7.50;100.00;100002.91;10536658;28;20048;-71
2023/01/08 06:23:44;;;;;;;5.90;4.93;;;;;;;7.38;100.00;100017.59;10543318;28;20043;-73
2023/01/08 06:28:45;;;;;;;9.95;5.90;;;;;;;7.44;100.00;100033.00;10558997;28;20036;-73
2023/01/08 06:33:45;;;;;;;6.20;5.68;;;;;;;7.47;100.00;100032.47;10543122;28;20032;-73
2023/01/08 06:38:46;;;;;;;8.95;6.30;;;;;;;7.49;100.00;100037.72;10546804;27;20043;-73
2023/01/08 06:43:46;;;;;;;10.52;6.05;;;;;;;7.45;100.00;100029.16;10585273;27;20503;-73
2023/01/08 06:48:47;;;;;;;7.93;5.65;;;;;;;7.42;100.00;100024.22;10568408;27;20562;-72
2023/01/08 06:53:47;;;;;;;8.00;5.47;;;;;;;7.43;100.00;100025.03;10586434;27;20028;-72
2023/01/08 06:58:48;;;;;;;9.50;5.63;;;;;;;7.38;100.00;100031.28;10582731;27;20120;-73
2023/01/08 07:03:48;;;;;;;6.90;4.50;;;;;;;7.38;100.00;100017.59;10599691;27;20036;-73
2023/01/08 07:08:49;;;;;;;7.50;4.95;;;;;;;7.37;100.00;100021.38;10549995;28;20039;-73
2023/01/08 07:13:50;;;;;;;9.60;3.78;;;;;;;7.02;100.00;99969.72;10522780;28;20036;-73
2023/01/08 07:18:50;;;;;;;6.63;4.35;;;;;;;7.38;100.00;100020.31;10542654;28;20048;-72
2023/01/08 07:23:51;;;;;;;10.27;4.20;;;;;;;7.37;100.00;100020.56;10557544;28;20043;-73
2023/01/08 07:28:51;;;;;;;9.23;3.75;;;;;;;7.34;100.00;100021.91;10523668;28;20051;-75
2023/01/08 07:33:52;;;;;;;6.93;4.15;;;;;;;7.36;100.00;100030.69;10522064;28;20104;-74
2023/01/08 07:38:52;;;;;;;9.63;3.65;;;;;;;7.32;100.00;100029.56;10526469;28;20048;-73
2023/01/08 07:43:53;;;;;;;6.05;3.17;;;;;;;7.27;100.00;100022.06;10598424;27;20028;-72
2023/01/08 07:48:55;;;;;;;8.60;3.50;;;;;;;7.23;100.00;100020.09;10582576;28;20069;-73
2023/01/08 07:53:55;;;;;;;5.82;4.32;;;;;;;7.18;100.00;100033.72;10598787;27;20426;-73
2023/01/08 07:58:56;;;;;;;7.93;3.70;;;;;;;7.15;100.00;100031.47;10581949;27;20035;-73
2023/01/08 08:03:56;;;;;;;8.95;4.47;;;;;;;7.08;100.00;100029.75;10580365;27;20442;-73
2023/01/08 08:08:58;;;;;;;7.50;3.95;;;;;;;7.05;100.00;100027.53;10556513;28;20032;-73
2023/01/08 08:13:59;;;;;;;7.85;4.90;;;;;;;7.05;100.00;100030.28;10526797;27;20119;-73
2023/01/08 08:18:59;;;;;;;9.38;4.88;;;;;;;6.98;100.00;100032.34;10563924;28;20048;-75
2023/01/08 08:24:00;;;;;;;12.68;5.13;;;;;;;6.92;100.00;100036.09;10580178;27;20084;-74
2023/01/08 08:29:01;;;;;;;11.52;7.05;;;;;;;6.85;100.00;100029.97;10579690;28;20036;-72
2023/01/08 08:34:01;;;;;;;8.18;5.20;;;;;;;6.81;100.00;100017.88;10579227;27;20050;-73
2023/01/08 08:39:02;;;;;;;14.77;7.65;;;;;;;6.65;100.00;99998.47;10562046;28;20035;-73
2023/01/08 08:44:03;;;;;;;14.23;6.38;;;;;;;6.76;100.00;100010.41;10576959;28;20047;-73
2023/01/08 08:49:03;;;;;;;9.18;5.85;;;;;;;6.73;100.00;99999.16;10579975;27;20035;-74
2023/01/08 08:54:04;;;;;;;12.10;5.20;;;;;;;6.72;100.00;99994.72;10596336;27;20040;-73
2023/01/08 08:59:04;;;;;;;4.63;4.15;;;;;;;6.79;100.00;100003.63;10578192;28;20158;-73
2023/01/08 09:04:05;;;;;;;13.15;5.63;;;;;;;6.84;100.00;99990.84;10561017;27;20479;-72
2023/01/08 09:09:05;;;;;;;6.40;3.88;;;;;;;6.87;100.00;99998.53;10536194;27;20032;-73
2023/01/08 09:14:06;;;;;;;8.35;4.13;;;;;;;6.92;100.00;100005.97;10538095;28;20442;-73
2023/01/08 09:19:07;;;;;;;7.82;3.70;;;;;;;6.96;100.00;99998.94;10539239;28;20040;-72
2023/01/08 09:24:08;;;;;;;5.65;3.75;;;;;;;7.00;100.00;100002.00;10519477;28;20060;-74
2023/01/08 09:29:08;;;;;;;5.68;2.92;;;;;;;6.74;100.00;99941.47;10538787;28;20055;-74
2023/01/08 09:34:09;;;;;;;9.57;3.72;;;;;;;7.14;100.00;99995.09;10536013;28;20052;-73
2023/01/08 09:39:09;;;;;;;5.65;3.35;;;;;;;7.04;100.00;99984.81;10515399;28;20040;-74
2023/01/08 09:44:13;;;;;;;5.03;2.42;;;;;;;7.19;100.00;100005.25;10573926;28;20028;-72
2023/01/08 09:49:16;;;;;;;14.45;4.35;;;;;;;7.24;100.00;99999.88;10562102;28;20031;-72
2023/01/08 09:54:16;;;;;;;6.00;2.45;;;;;;;7.31;100.00;100008.72;10561826;28;20089;-73
2023/01/08 09:59:17;;;;;;;4.47;2.15;;;;;;;7.31;100.00;100000.50;10569085;27;20092;-73
2023/01/08 10:04:19;;;;;;;5.03;1.95;;;;;;;7.39;100.00;100002.78;10568559;27;20049;-73
2023/01/08 10:09:25;;;;;;;6.13;2.42;;;;;;;7.42;100.00;99996.81;10550711;27;20031;-73
2023/01/08 10:14:33;;;;;;;6.70;1.93;;;;;;;7.55;100.00;99992.88;10583801;27;20439;-74
2023/01/08 10:19:33;;;;;;;15.15;3.92;;;;;;;7.42;100.00;99963.09;10533794;28;20635;-73
2023/01/08 10:24:36;;;;;;;6.05;1.98;;;;;;;7.60;100.00;99981.94;10542472;28;20033;-76
2023/01/08 10:29:38;;;;;;;5.32;1.92;;;;;;;7.68;100.00;99969.72;10542023;28;20065;-74
2023/01/08 10:34:42;;;;;;;8.75;2.20;;;;;;;7.72;100.00;99965.38;10541716;28;20032;-73
2023/01/08 10:39:45;;;;;;;5.95;1.70;;;;;;;7.75;100.00;99953.91;10576080;27;20040;-73
2023/01/08 10:44:56;;;;;;;6.03;2.22;;;;;;;7.79;100.00;99944.09;10583160;27;20035;-73
2023/01/08 10:49:57;;;;;;;5.45;1.38;;;;;;;7.85;100.00;99940.31;10522925;28;20044;-73
2023/01/08 10:55:20;;;;;;;7.40;1.98;;;;;;;7.94;100.00;99931.59;10531683;27;20040;-73
2023/01/08 11:00:25;;;;;;;7.97;2.50;;;;;;;8.04;100.00;99915.25;10529648;27;21077;-73
2023/01/08 11:05:34;;;;;;;8.25;2.10;;;;;;;8.12;100.00;99920.25;10561022;27;20095;-73
2023/01/08 11:10:35;;;;;;;5.07;1.65;;;;;;;8.29;100.00;99912.72;10540439;27;20040;-73
2023/01/08 11:15:37;;;;;;;5.80;2.90;;;;;;;8.49;100.00;99916.72;10544180;28;20300;-72
2023/01/08 11:20:40;;;;;;;8.15;1.60;;;;;;;8.53;100.00;99911.53;10550649;27;20035;-73
2023/01/08 11:25:48;;;;;;;8.20;2.05;;;;;;;8.75;100.00;99897.69;10563221;27;20043;-73
2023/01/08 11:30:57;;;;;;;9.00;1.80;;;;;;;8.77;100.00;99895.50;10576523;27;20120;-73
2023/01/08 11:36:25;;;;;;;7.72;1.73;;;;;;;8.94;100.00;99896.13;10522820;27;20046;-74
2023/01/08 11:41:45;;;;;;;15.05;2.13;;;;;;;9.05;100.00;99886.00;10541029;28;20058;-74
2023/01/08 11:47:01;;;;;;;11.90;1.70;;;;;;;9.08;100.00;99880.81;10530778;28;20039;-75
2023/01/08 11:52:25;;;;;;;10.87;2.13;;;;;;;9.18;100.00;99857.25;10546410;28;20024;-72
2023/01/08 11:57:43;;;;;;;9.82;2.05;;;;;;;9.33;100.00;99860.03;10554817;28;20040;-72
2023/01/08 12:02:58;;;;;;;10.05;1.70;;;;;;;9.42;100.00;99846.56;10542260;28;20039;-72
2023/01/08 12:08:02;;;;;;;10.80;1.98;;;;;;;9.31;100.00;99845.72;10524173;28;20116;-71
2023/01/08 12:13:22;;;;;;;11.23;2.72;;;;;;;9.58;100.00;99852.94;10522086;28;20040;-72
2023/01/08 12:18:28;;;;;;;4.13;1.48;;;;;;;9.28;100.00;99843.50;10541835;28;20047;-72
2023/01/08 12:23:54;;;;;;;9.55;1.73;;;;;;;9.39;100.00;99847.94;10581155;28;20047;-72
2023/01/08 12:28:55;;;;;;;9.77;2.22;;;;;;;9.11;100.00;99841.00;10547308;28;20557;-72
2023/01/08 12:34:29;;;;;;;10.77;1.90;;;;;;;9.05;100.00;99842.94;10561245;28;20035;-72
2023/01/08 12:39:34;;;;;;;10.43;1.90;;;;;;;9.05;100.00;99837.44;10578601;28;20134;-72
2023/01/08 12:44:35;;;;;;;9.63;2.15;;;;;;;8.96;100.00;99827.25;10561938;28;20027;-72
2023/01/08 12:49:45;;;;;;;13.13;2.05;;;;;;;8.78;100.00;99829.34;10560749;28;20484;-72
2023/01/08 12:54:55;;;;;;;11.00;2.53;;;;;;;8.78;100.00;99810.13;10561308;28;20038;-72
2023/01/08 13:00:00;;;;;;;10.25;2.30;;;;;;;9.06;100.00;99795.16;10560445;28;20038;-72
2023/01/08 13:05:24;;;;;;;9.43;2.05;;;;;;;9.80;100.00;99793.03;10560597;28;20036;-73
2023/01/08 13:10:30;;;;;;;9.88;2.17;;;;;;;9.42;100.00;99789.72;10561248;28;20069;-72
2023/01/08 13:15:31;;;;;;;8.38;1.58;;;;;;;9.70;100.00;99793.03;10559160;28;20081;-72
2023/01/08 13:20:32;;;;;;;6.60;1.45;;;;;;;10.82;100.00;99769.13;10558371;28;20073;-72
2023/01/08 13:25:34;;;;;;;6.15;1.35;;;;;;;11.28;100.00;99738.53;10559668;28;20027;-72
2023/01/08 13:30:37;;;;;;;7.13;2.53;;;;;;;10.62;100.00;99732.31;10562252;28;20046;-72
2023/01/08 13:35:39;;;;;;;11.45;2.30;;;;;;;10.00;100.00;99733.59;10567925;27;20063;-71
2023/01/08 13:40:42;;;;;;;12.90;2.50;;;;;;;9.42;100.00;99654.28;10586535;28;20040;-72
2023/01/08 13:45:43;;;;;;;6.63;2.78;;;;;;;9.73;100.00;99737.50;10543147;28;20032;-71
2023/01/08 13:50:43;;;;;;;8.95;2.35;;;;;;;9.55;100.00;99729.81;10544737;28;20028;-71
2023/01/08 13:55:56;;;;;;;6.63;1.98;;;;;;;9.19;100.00;99732.56;10510231;28;20589;-71
2023/01/08 14:00:57;;;;;;;16.40;2.90;;;;;;;8.91;100.00;99731.13;10543702;28;20035;-71
2023/01/08 14:06:04;;;;;;;8.52;2.40;;;;;;;8.53;100.00;99676.44;10527942;28;20059;-71
2023/01/08 14:11:05;;;;;;;8.23;2.42;;;;;;;8.67;100.00;99713.25;10563742;27;20081;-70
2023/01/08 14:16:06;;;;;;;8.45;1.95;;;;;;;8.60;100.00;99704.47;10586964;27;20061;-70
2023/01/08 14:21:06;;;;;;;7.03;1.92;;;;;;;8.50;100.00;99707.16;10567770;27;20035;-71
2023/01/08 14:26:10;;;;;;;6.35;1.98;;;;;;;8.59;100.00;99711.03;10568081;27;20032;-71
2023/01/08 14:31:20;;;;;;;8.25;1.95;;;;;;;8.80;100.00;99697.38;10584958;28;20032;-70
2023/01/08 14:36:21;;;;;;;8.68;1.80;;;;;;;8.71;100.00;99705.31;10587275;27;20039;-71
2023/01/08 14:42:41;;;;;;;7.68;1.95;;;;;;;8.65;100.00;99712.69;10582258;27;20031;-71
2023/01/08 14:46:52;;;;;;;8.40;2.00;;;;;;;8.37;100.00;99682.94;10542730;28;20044;-71
2023/01/08 14:51:53;;;;;;;4.72;1.90;;;;;;;8.19;100.00;99715.25;10541181;28;20024;-71
2023/01/08 14:56:54;;;;;;;6.55;1.58;;;;;;;8.08;100.00;99719.00;10541206;28;20119;-70
2023/01/08 15:01:57;;;;;;;5.75;2.03;;;;;;;8.08;100.00;99721.75;10543537;28;20070;-70
2023/01/08 15:07:15;;;;;;;5.18;1.80;;;;;;;8.16;100.00;99713.00;10542648;28;20032;-71
2023/01/08 15:12:26;;;;;;;7.93;1.92;;;;;;;8.23;100.00;99708.13;10562783;27;20055;-73
2023/01/08 15:17:26;;;;;;;7.38;2.67;;;;;;;8.11;100.00;99702.03;10559667;27;20049;-71
2023/01/08 15:22:28;;;;;;;6.50;1.58;;;;;;;7.95;100.00;99697.56;10540254;28;20032;-71
2023/01/08 15:27:35;;;;;;;4.15;1.80;;;;;;;7.73;100.00;99704.03;10541381;28;20047;-71
2023/01/08 15:32:37;;;;;;;6.35;1.52;;;;;;;7.56;100.00;99697.88;10524507;28;20407;-70
2023/01/08 15:37:38;;;;;;;4.63;2.00;;;;;;;7.36;100.00;99685.69;10540157;28;20036;-71
2023/01/08 15:47:57;;;;;;;4.90;1.80;;;;;;;6.88;100.00;99673.78;10551566;27;20036;-72
2023/01/08 15:52:59;;;;;;;4.40;2.30;;;;;;;6.85;100.00;99677.03;10582045;27;20044;-72
2023/01/08 15:58:00;;;;;;;1.88;1.77;;;;;;;6.79;100.00;99683.53;10581468;28;20515;-72
2023/01/08 16:03:03;;;;;;;3.03;1.80;;;;;;;6.68;100.00;99674.41;10597867;27;20039;-72
2023/01/08 16:08:04;;;;;;;2.47;1.70;;;;;;;6.62;100.00;99679.00;10597634;27;20031;-72
2023/01/08 16:13:04;;;;;;;1.50;1.40;;;;;;;6.55;100.00;99672.06;10570058;27;20032;-72
2023/01/08 16:18:04;;;;;;;3.72;2.03;;;;;;;6.43;100.00;99666.78;10561853;27;20050;-71
2023/01/08 16:23:05;;;;;;;2.90;1.85;;;;;;;6.39;100.00;99679.31;10569799;28;20043;-71
2023/01/08 16:28:06;;;;;;;4.22;1.90;;;;;;;6.30;100.00;99661.69;10565470;27;20123;-71
2023/01/08 16:33:06;;;;;;;4.28;2.17;;;;;;;6.21;100.00;99655.84;10541505;28;20028;-72
2023/01/08 16:38:07;;;;;;;2.92;1.77;;;;;;;6.17;100.00;99658.25;10557758;27;20040;-71
2023/01/08 16:43:07;;;;;;;2.40;2.00;;;;;;;6.10;100.00;99648.59;10557394;27;20050;-73
2023/01/08 16:48:08;;;;;;;3.97;2.15;;;;;;;6.03;100.00;99654.25;10507861;28;20032;-72
2023/01/08 16:53:08;;;;;;;4.18;2.22;;;;;;;5.83;100.00;99636.50;10550489;28;20040;-72
2023/01/08 16:58:09;;;;;;;6.32;3.50;;;;;;;5.80;100.00;99656.13;10517414;28;20060;-72
2023/01/08 17:03:09;;;;;;;4.65;2.70;;;;;;;5.68;100.00;99660.06;10502360;28;20036;-72
2023/01/08 17:08:14;;;;;;;7.93;3.10;;;;;;;5.56;100.00;99649.22;10539975;28;20040;-72
2023/01/08 17:13:15;;;;;;;10.60;3.38;;;;;;;5.49;100.00;99651.31;10571791;28;20046;-72
2023/01/08 17:18:15;;;;;;;4.43;3.30;;;;;;;5.37;100.00;99657.69;10532891;28;20456;-74
2023/01/08 17:23:16;;;;;;;5.43;3.42;;;;;;;5.24;100.00;99652.59;10549032;28;20040;-71
2023/01/08 17:28:16;;;;;;;10.95;3.22;;;;;;;5.05;100.00;99647.38;10574490;28;20036;-72
2023/01/08 17:33:17;;;;;;;4.97;3.05;;;;;;;5.02;100.00;99664.25;10565927;28;20051;-71
2023/01/08 17:38:17;;;;;;;5.07;3.33;;;;;;;4.85;100.00;99630.69;10549892;28;20426;-71
2023/01/08 17:43:18;;;;;;;4.13;3.53;;;;;;;4.89;100.00;99645.47;10579323;28;20036;-71
2023/01/08 17:48:18;;;;;;;5.57;3.20;;;;;;;4.67;100.00;99631.72;10522735;28;20040;-70
2023/01/08 17:53:18;;;;;;;5.75;3.47;;;;;;;4.62;100.00;99643.38;10551885;28;20379;-71
2023/01/08 17:58:19;;;;;;;10.63;5.00;;;;;;;4.54;100.00;99645.69;10534932;28;20044;-71
2023/01/08 18:03:20;;;;;;;6.78;3.97;;;;;;;4.44;100.00;99646.31;10560324;28;20043;-71
2023/01/08 18:08:20;;;;;;;5.70;3.60;;;;;;;4.37;100.00;99634.75;10557565;28;20028;-71
2023/01/08 18:13:20;;;;;;;5.95;3.90;;;;;;;4.40;100.00;99640.56;10535654;28;20077;-71
2023/01/08 18:18:21;;;;;;;9.65;4.88;;;;;;;4.36;100.00;99633.09;10563262;27;20044;-70
2023/01/08 18:23:25;;;;;;;5.10;4.10;;;;;;;4.37;100.00;99638.28;10601071;27;20039;-71
2023/01/08 18:28:25;;;;;;;7.35;4.53;;;;;;;4.32;100.00;99631.91;10544636;28;20054;-71
2023/01/08 18:33:26;;;;;;;6.03;4.25;;;;;;;4.29;100.00;99619.63;10585257;27;20028;-71
2023/01/08 18:38:26;;;;;;;5.45;4.03;;;;;;;4.38;100.00;99606.41;10585085;27;20457;-71
2023/01/08 18:43:27;;;;;;;8.80;4.65;;;;;;;4.42;100.00;99607.56;10566419;27;20105;-71
2023/01/08 18:48:28;;;;;;;7.97;4.63;;;;;;;4.54;100.00;99602.91;10567310;27;20031;-70
2023/01/08 18:53:28;;;;;;;7.60;3.97;;;;;;;4.65;100.00;99588.38;10601608;27;20028;-71
2023/01/08 18:58:29;;;;;;;5.55;3.60;;;;;;;4.71;100.00;99580.28;10575551;27;20040;-72
2023/01/08 19:03:29;;;;;;;9.07;4.10;;;;;;;4.72;100.00;99574.59;10578877;27;20063;-71
2023/01/08 19:08:30;;;;;;;12.68;4.75;;;;;;;4.77;100.00;99569.19;10581562;27;20055;-72
2023/01/08 19:13:30;;;;;;;9.93;4.10;;;;;;;4.79;100.00;99566.22;10564976;27;20061;-72
2023/01/08 19:18:31;;;;;;;7.43;4.00;;;;;;;4.71;100.00;99561.19;10584239;27;20042;-72
2023/01/08 19:23:32;;;;;;;6.32;3.60;;;;;;;4.65;100.00;99549.38;10565376;27;20525;-72
2023/01/08 19:28:32;;;;;;;6.60;3.33;;;;;;;4.59;100.00;99536.75;10580395;28;20435;-72
2023/01/08 19:33:33;;;;;;;5.20;3.75;;;;;;;4.60;100.00;99525.59;10563389;27;20071;-71
2023/01/08 19:38:33;;;;;;;4.63;3.45;;;;;;;4.53;100.00;99519.50;10564076;27;20059;-72
2023/01/08 19:43:43;;;;;;;4.50;3.20;;;;;;;4.52;100.00;99509.66;10563809;27;20043;-72
2023/01/08 19:48:44;;;;;;;7.15;3.45;;;;;;;4.52;100.00;99501.47;10597545;27;20077;-71
2023/01/08 19:53:44;;;;;;;6.00;4.07;;;;;;;4.49;100.00;99499.25;10582816;27;20042;-72
2023/01/08 19:58:45;;;;;;;10.00;4.03;;;;;;;4.44;100.00;99491.81;10581672;27;20050;-72
2023/01/08 20:03:46;;;;;;;9.30;5.20;;;;;;;4.49;100.00;99484.81;10562562;27;20038;-71
2023/01/08 20:08:52;;;;;;;5.50;4.38;;;;;;;4.57;100.00;99481.66;10581605;27;20035;-72
2023/01/08 20:13:54;;;;;;;5.07;3.47;;;;;;;4.58;100.00;99473.22;10580780;27;20499;-72
2023/01/08 20:19:00;;;;;;;8.18;3.83;;;;;;;4.60;100.00;99460.16;10580424;27;20596;-72
2023/01/08 20:24:03;;;;;;;;;;;;;;;4.53;100.00;99464.97;10581732;27;20036;-72
2023/01/08 20:29:04;;;;;;;7.28;3.50;;;;;;;4.47;100.00;99463.25;10544483;27;19919;-72
2023/01/08 20:34:08;;;;;;;5.97;3.30;;;;;;;4.49;100.00;99441.19;10595020;27;20592;-72
2023/01/08 20:39:11;;;;;;;3.67;3.22;;;;;;;4.45;100.00;99447.13;10548997;28;20072;-72
2023/01/08 20:44:12;;;;;;;6.30;3.00;;;;;;;4.50;100.00;99440.94;10595943;27;20032;-71
2023/01/08 20:49:13;;;;;;;7.28;3.28;;;;;;;4.51;100.00;99433.59;10578773;27;20488;-71
2023/01/08 20:54:14;;;;;;;4.30;2.97;;;;;;;4.45;100.00;99429.97;10578750;27;20072;-72
2023/01/08 20:59:16;;;;;;;5.70;3.30;;;;;;;4.33;100.00;99431.97;10578526;27;20043;-72
2023/01/08 21:04:16;;;;;;;4.28;2.90;;;;;;;4.27;100.00;99424.78;10576521;28;20049;-71
2023/01/08 21:09:17;;;;;;;5.05;3.17;;;;;;;4.23;100.00;99417.09;10560078;28;20448;-72
2023/01/08 21:14:17;;;;;;;4.57;3.40;;;;;;;4.21;100.00;99412.97;10560539;28;20040;-72
2023/01/08 21:19:18;;;;;;;13.30;5.32;;;;;;;4.21;100.00;99397.44;10576814;27;20046;-72
2023/01/08 21:24:19;;;;;;;6.80;3.25;;;;;;;4.28;100.00;99380.94;10559849;28;20038;-73
2023/01/08 21:29:22;;;;;;;8.35;3.28;;;;;;;4.33;100.00;99380.19;10592778;28;20039;-72
2023/01/08 21:34:22;;;;;;;4.80;3.38;;;;;;;4.40;100.00;99378.09;10576140;28;20126;-73
2023/01/08 21:39:24;;;;;;;4.75;3.05;;;;;;;4.41;100.00;99372.41;10543245;28;20039;-73
2023/01/08 21:49:44;;;;;;;4.30;3.13;;;;;;;4.41;100.00;99352.53;10577480;28;20067;-72
2023/01/08 21:54:45;;;;;;;5.10;3.00;;;;;;;4.12;100.00;99311.78;10567261;27;20036;-73
2023/01/08 21:59:48;;;;;;;7.13;3.85;;;;;;;4.33;100.00;99339.31;10583839;27;20055;-73
2023/01/08 22:04:48;;;;;;;6.20;3.20;;;;;;;4.44;100.00;99331.06;10583799;27;20043;-73
2023/01/08 22:09:49;;;;;;;8.63;3.28;;;;;;;4.70;100.00;99312.28;10567640;27;20032;-73
2023/01/08 22:14:53;;;;;;;5.97;2.97;;;;;;;4.81;100.00;99302.31;10536558;27;20435;-72
2023/01/08 22:19:53;;;;;;;5.90;4.32;;;;;;;5.06;100.00;99307.22;10583702;27;20036;-72
2023/01/08 22:24:54;;;;;;;5.03;2.90;;;;;;;4.96;100.00;99283.41;10584896;27;20040;-73
2023/01/08 22:29:54;;;;;;;4.82;2.88;;;;;;;4.94;100.00;99291.03;10565965;27;20043;-73
2023/01/08 22:34:55;;;;;;;6.82;3.53;;;;;;;4.84;100.00;99274.56;10584401;27;20135;-72
2023/01/08 22:39:56;;;;;;;4.95;4.00;;;;;;;4.91;100.00;99286.06;10583483;27;20104;-73
2023/01/08 22:44:56;;;;;;;6.13;3.40;;;;;;;4.63;100.00;99235.31;10584757;27;20032;-73
2023/01/08 22:49:56;;;;;;;5.95;3.50;;;;;;;5.01;100.00;99269.81;10582285;28;20028;-73
2023/01/08 22:54:58;;;;;;;4.85;3.00;;;;;;;5.14;100.00;99262.31;10565074;27;20047;-73
2023/01/08 22:59:58;;;;;;;5.47;3.55;;;;;;;5.19;100.00;99255.00;10581292;27;20039;-73
2023/01/08 23:04:59;;;;;;;3.42;3.10;;;;;;;5.14;100.00;99251.41;10563851;27;20047;-73
2023/01/08 23:09:59;;;;;;;4.28;2.50;;;;;;;5.16;100.00;99251.97;10574405;27;20047;-72
2023/01/08 23:15:00;;;;;;;4.53;3.47;;;;;;;5.12;100.00;99237.19;10584687;27;20032;-73
2023/01/08 23:20:02;;;;;;;4.50;3.22;;;;;;;5.11;100.00;99246.47;10538507;28;20609;-73
2023/01/08 23:25:03;;;;;;;6.63;3.53;;;;;;;5.02;100.00;99248.81;10555651;28;20400;-73
2023/01/08 23:30:04;;;;;;;4.45;3.22;;;;;;;5.07;100.00;99239.88;10554524;28;20092;-73